首页
METAR-TAF:

METAR-TAF

机场 :

Benton Harbor, 密歇根州, 美国

纬度: 42-07-43N, 经度: 086-25-42W, 海拔: 196米

当前天气观测

该预报发布于41分钟前的13:53 UTC
风速9节,风向北转西北,有时为19节阵风,在西转西北之间变化
温度 -6°C
湿度 58%
气压 1029 hPa
能見度: 16.1公里
散云层高于3100英尺
多云层高于3800英尺
阴天层高于5500英尺

METAR: KBEH 121353Z AUTO 33009G19KT 300V360 10SM SCT031 BKN038 OVC055 M06/M13 A3038 RMK AO2 SLP298 T10561128

时间: 09:34 (14:34 UTC)


TAF: 丢失

超过4000个机场的气象观测和天气预报(METAR&TAF报告)。

可查询的气象台以黄色和红色小点在地图上表示。

将鼠标移到小点上方,可查看气象台名称。

然后点击查看天气观测和预报。

如需切换地图:点击带黑十字的绿色按钮放大地图;点击带横线的绿色按钮缩小地图;或者点击绿色箭头查看邻近地区的地图。


METAR-TAF: